• pl
  • eng

Awiacja
WIADOMOŚCI
ostatnia aktualizacja: 17.04.2020 19:04
Szanowni Państwo,

mając na uwadze sytuację związaną z pandemią wywołaną koronawirusem SARS-Cov-2 oraz w trosce o bezpieczeństwo Państwa oraz naszych pracowników, IMGW-PIB podjął decyzję o przeniesieniu kolejnej edycji Szkoły Meteorologii Lotniczej na przyszły rok. W tej chwili podanie dokładnego terminu szkoły nie jest możliwe, ale jak tylko będzie znany zostanie ogłoszony na naszych stronach internetowych, do których śledzenia serdecznie zapraszamy.

Komunikaty METAR z lotnisk wojskowych. 15:01 18.09.2020

METAR EPCE 181300Z 29010KT CAVOK 16/05
Q1028 RMK 160 049 0/0=

METAR EPDA 181300Z 28007KT 230V310 CAVOK 16/07
Q1029 RMK 155 055 0/0=

METAR EPDE 181300Z 29010KT 9999 NSC 18/06 Q1026 RMK 183 045 3/3=

METAR EPIR 181300Z 27012KT 9999 NSC 19/05 Q1028 RMK 186 041 4/4=

METAR EPKS 181300Z 32007KT 9999 NSC 18/01 Q1029 RMK 179 031 4/4=

METAR EPLK 181300Z 33008KT 290V030 9999 NSC 17/03 Q1028 RMK 174
037 4/4=

METAR EPLY 181300Z 30008KT 9999 NSC 18/03 Q1028 RMK 175 039 3/3=

METAR EPMB 181300Z 34007KT 270V050 9999 NSC 19/04 Q1027 RMK 185 037
1/1=

METAR EPMI 181300Z 30006KT 9999 NSC 18/06 Q1029 RMK 178 046 0/0=

METAR EPMM 181300Z 31011KT 9999 NSC 17/06 Q1026 RMK 170
047 3/1=

METAR EPNA 181300Z 31006KT 9999 NSC 18/03 Q1029 RMK 180 038 0/0=

METAR EPOK 181300Z 28011KT 260V320 CAVOK 18/05
Q1027 RMK 175 044 0/0=

METAR EPPR 181300Z 29006KT 9999 NSC 19/04 Q1027 RMK 189 038 0/0=

METAR EPPW 181300Z 32008KT 9999 NSC 18/04 Q1029 RMK 181 039 3/3=

METAR EPRA 181300Z NIL=

METAR EPSN 181300Z 33004KT 230V040 9999 FEW200 18/06 Q1029 RMK 178
047 2/2=

METAR EPTM 181300Z 35008KT 9999 NSC 17/02 Q1028 RMK 167 037 5/5=
Awiacja.imgw.pl jest pogodowym serwisem informacyjnym
Instytutu Meteorologii i Gospodarki Wodnej Państwowego Instytutu Badawczego.
Copyright IMGW PIB 2009-2019© Wszelkie prawa zastrzeżone.